Time;durP1;ratioP1;P1;durP2;ratioP2;P2;SDS_P1;SDS_P2;PMS_P1;PMS_P2;Temp;Humidity;BMP_temperature;BMP_pressure;BME280_temperature;BME280_humidity;BME280_pressure;Samples;Min_cycle;Max_cycle;Signal;HPM_P1;HPM_P2
2024/04/04 00:00:11;;;;;;;5.93;3.63;;;22.90;99.90;;;;;;5053937;28;20469;-48
2024/04/04 00:02:37;;;;;;;6.07;4.25;;;22.90;99.90;;;;;;5053713;28;20017;-47
2024/04/04 00:05:03;;;;;;;7.60;4.78;;;22.90;99.90;;;;;;5053998;28;20026;-48
2024/04/04 00:07:29;;;;;;;5.90;4.50;;;22.90;99.90;;;;;;5019461;28;20420;-48
2024/04/04 00:09:55;;;;;;;6.93;4.65;;;22.80;99.90;;;;;;5053560;28;20029;-48
2024/04/04 00:12:25;;;;;;;6.80;4.88;;;22.90;99.90;;;;;;5053450;28;20104;-47
2024/04/04 00:14:51;;;;;;;8.30;4.50;;;22.80;99.90;;;;;;5053385;28;20024;-47
2024/04/04 00:17:17;;;;;;;7.38;4.65;;;22.80;99.90;;;;;;5053413;28;20068;-47
2024/04/04 00:19:44;;;;;;;6.07;4.57;;;22.80;99.90;;;;;;5053426;28;20025;-47
2024/04/04 00:22:10;;;;;;;8.40;4.45;;;22.80;99.90;;;;;;5053476;28;20537;-47
2024/04/04 00:24:35;;;;;;;6.30;4.20;;;22.80;99.90;;;;;;5037889;28;20117;-47
2024/04/04 00:27:01;;;;;;;6.65;4.10;;;22.80;99.90;;;;;;5039587;28;20108;-47
2024/04/04 00:29:27;;;;;;;6.43;4.35;;;22.80;99.90;;;;;;5052759;28;20055;-47
2024/04/04 00:31:53;;;;;;;7.65;4.80;;;22.80;99.90;;;;;;5052966;28;20021;-47
2024/04/04 00:34:22;;;;;;;5.38;4.15;;;22.80;99.90;;;;;;5041679;28;20031;-47
2024/04/04 00:36:47;;;;;;;7.43;4.50;;;22.80;99.90;;;;;;5035469;28;20036;-47
2024/04/04 00:39:14;;;;;;;5.28;3.70;;;22.80;99.90;;;;;;5034677;28;20022;-46
2024/04/04 00:41:40;;;;;;;6.80;4.40;;;22.70;99.90;;;;;;5036077;28;20018;-46
2024/04/04 00:44:06;;;;;;;7.05;4.30;;;22.70;99.90;;;;;;5031943;28;20037;-46
2024/04/04 00:46:33;;;;;;;5.85;4.05;;;22.80;99.90;;;;;;5031793;28;20049;-45
2024/04/04 00:49:01;;;;;;;6.30;4.03;;;22.70;99.90;;;;;;5032944;28;20060;-45
2024/04/04 00:51:27;;;;;;;6.25;4.00;;;22.70;99.90;;;;;;5032850;28;20045;-47
2024/04/04 00:53:54;;;;;;;6.75;4.50;;;22.70;99.90;;;;;;5033007;28;20026;-47
2024/04/04 00:56:21;;;;;;;7.00;4.45;;;22.70;99.90;;;;;;5031961;28;20116;-47
2024/04/04 00:58:47;;;;;;;7.22;4.63;;;22.70;99.90;;;;;;5032605;28;20104;-47
2024/04/04 01:01:13;;;;;;;6.40;4.75;;;22.70;99.90;;;;;;5054882;23;20100;-51
2024/04/04 01:03:40;;;;;;;5.97;4.40;;;22.70;99.90;;;;;;4993404;28;20030;-49
2024/04/04 01:06:05;;;;;;;5.32;3.92;;;22.70;99.90;;;;;;4993540;28;20022;-49
2024/04/04 01:08:35;;;;;;;7.25;4.45;;;22.60;99.90;;;;;;4993195;28;20040;-50
2024/04/04 01:11:01;;;;;;;5.45;4.10;;;22.70;99.90;;;;;;4975639;28;20030;-50
2024/04/04 01:13:27;;;;;;;6.47;4.25;;;22.60;99.90;;;;;;4993168;28;20481;-50
2024/04/04 01:15:53;;;;;;;5.82;3.70;;;22.70;99.90;;;;;;4992970;28;20031;-50
2024/04/04 01:18:19;;;;;;;6.03;4.25;;;22.70;99.90;;;;;;4993238;28;20026;-50
2024/04/04 01:20:45;;;;;;;5.60;4.00;;;22.60;99.90;;;;;;4975642;28;20034;-50
2024/04/04 01:23:11;;;;;;;5.28;3.97;;;22.60;99.90;;;;;;4993145;28;20081;-50
2024/04/04 01:25:36;;;;;;;5.80;4.13;;;22.60;99.90;;;;;;4993073;28;20413;-50
2024/04/04 01:28:02;;;;;;;6.03;4.25;;;22.60;99.90;;;;;;4992822;28;20385;-50
2024/04/04 01:30:28;;;;;;;6.32;4.00;;;22.60;99.90;;;;;;4975447;28;20038;-50
2024/04/04 01:32:54;;;;;;;5.95;4.68;;;22.60;99.90;;;;;;4992876;28;20027;-50
2024/04/04 01:35:20;;;;;;;6.47;4.30;;;22.60;99.90;;;;;;4992846;28;20053;-50
2024/04/04 01:37:46;;;;;;;5.72;3.88;;;22.60;99.90;;;;;;4992858;28;20422;-50
2024/04/04 01:40:12;;;;;;;7.20;4.80;;;22.50;99.90;;;;;;4992724;28;20088;-50
2024/04/04 01:42:37;;;;;;;7.30;4.57;;;22.60;99.90;;;;;;4993071;28;20065;-50
2024/04/04 01:45:04;;;;;;;6.50;3.90;;;22.50;99.90;;;;;;4975311;28;20108;-50
2024/04/04 01:47:30;;;;;;;5.18;4.22;;;22.50;99.90;;;;;;4992771;28;20049;-50
2024/04/04 01:49:55;;;;;;;7.75;4.25;;;22.50;99.90;;;;;;4975019;28;20035;-50
2024/04/04 01:52:21;;;;;;;6.68;4.30;;;22.50;99.90;;;;;;4975262;28;20101;-50
2024/04/04 01:54:47;;;;;;;6.05;4.63;;;22.50;99.90;;;;;;4975194;28;20030;-49
2024/04/04 01:57:13;;;;;;;5.97;4.45;;;22.50;99.90;;;;;;4992841;28;20018;-50
2024/04/04 01:59:38;;;;;;;5.88;4.43;;;22.50;99.90;;;;;;4992706;28;20150;-50
2024/04/04 02:02:04;;;;;;;5.40;4.25;;;22.50;99.90;;;;;;4992928;28;20046;-50
2024/04/04 02:04:30;;;;;;;6.07;4.72;;;22.50;99.90;;;;;;4992407;28;20030;-50
2024/04/04 02:06:56;;;;;;;6.90;4.70;;;22.40;99.90;;;;;;4992637;28;20019;-50
2024/04/04 02:09:22;;;;;;;5.68;4.82;;;22.40;99.90;;;;;;4977968;28;20044;-50
2024/04/04 02:11:49;;;;;;;4.93;3.90;;;22.40;99.90;;;;;;4996374;28;20046;-50
2024/04/04 02:14:15;;;;;;;5.82;3.92;;;22.40;99.90;;;;;;4996421;28;20050;-50
2024/04/04 02:16:42;;;;;;;6.00;4.40;;;22.40;99.90;;;;;;4996605;28;20030;-51
2024/04/04 02:19:08;;;;;;;5.90;4.05;;;22.40;99.90;;;;;;4996351;28;20023;-51
2024/04/04 02:21:34;;;;;;;7.78;4.75;;;22.40;99.90;;;;;;4996355;28;20089;-50
2024/04/04 02:24:00;;;;;;;7.55;4.50;;;22.40;99.90;;;;;;4996225;28;20038;-50
2024/04/04 02:26:26;;;;;;;5.85;4.50;;;22.40;99.90;;;;;;4996285;28;20046;-50
2024/04/04 02:28:51;;;;;;;6.85;4.25;;;22.30;99.90;;;;;;4978795;28;20038;-50
2024/04/04 02:31:17;;;;;;;6.03;4.47;;;22.40;99.90;;;;;;4996119;28;20026;-50
2024/04/04 02:33:43;;;;;;;5.78;3.90;;;22.40;99.90;;;;;;4996264;28;20509;-50
2024/04/04 02:36:09;;;;;;;5.80;3.90;;;22.30;99.90;;;;;;4996112;28;20030;-50
2024/04/04 02:38:35;;;;;;;5.10;3.97;;;22.30;99.90;;;;;;4995935;28;20027;-50
2024/04/04 02:41:04;;;;;;;5.40;3.90;;;22.30;99.90;;;;;;4995959;28;20033;-51
2024/04/04 02:43:31;;;;;;;5.07;3.67;;;22.30;99.90;;;;;;4979200;28;20026;-50
2024/04/04 02:46:04;;;;;;;4.40;4.00;;;22.30;99.90;;;;;;4996037;28;20367;-50
2024/04/04 02:48:30;;;;;;;5.07;3.80;;;22.30;99.90;;;;;;4995842;28;20386;-50
2024/04/04 02:50:57;;;;;;;5.72;3.83;;;22.30;99.90;;;;;;4995688;28;20031;-49
2024/04/04 02:53:24;;;;;;;6.00;3.88;;;22.30;99.90;;;;;;4995835;28;20093;-50
2024/04/04 02:55:57;;;;;;;8.13;4.40;;;22.30;99.90;;;;;;4995852;28;20054;-49
2024/04/04 02:58:23;;;;;;;4.63;3.97;;;22.30;99.90;;;;;;4995668;28;20026;-50
2024/04/04 03:00:50;;;;;;;6.03;4.53;;;22.30;99.90;;;;;;5013480;23;20145;-52
2024/04/04 03:03:16;;;;;;;6.13;4.35;;;22.20;99.90;;;;;;5034986;28;20041;-51
2024/04/04 03:05:42;;;;;;;5.15;4.10;;;22.20;99.90;;;;;;5035075;28;20022;-52
2024/04/04 03:08:09;;;;;;;6.40;4.63;;;22.20;99.90;;;;;;5034870;28;20235;-52
2024/04/04 03:10:36;;;;;;;4.97;3.58;;;22.20;99.90;;;;;;5034764;28;20065;-51
2024/04/04 03:13:03;;;;;;;5.95;4.15;;;22.20;99.90;;;;;;5034825;28;20072;-52
2024/04/04 03:15:30;;;;;;;4.97;3.88;;;22.20;99.90;;;;;;5034653;28;20072;-53
2024/04/04 03:17:56;;;;;;;5.72;4.53;;;22.20;99.90;;;;;;5034695;28;20021;-53
2024/04/04 03:20:22;;;;;;;5.43;4.03;;;22.20;99.90;;;;;;5034369;28;20014;-53
2024/04/04 03:22:48;;;;;;;6.55;3.60;;;22.20;99.90;;;;;;5034704;28;20025;-52
2024/04/04 03:25:14;;;;;;;5.00;3.80;;;22.20;99.90;;;;;;5034683;28;20026;-53
2024/04/04 03:27:40;;;;;;;6.18;3.80;;;22.20;99.90;;;;;;5034558;28;20496;-53
2024/04/04 03:30:07;;;;;;;5.90;3.78;;;22.20;99.90;;;;;;5034409;28;20061;-53
2024/04/04 03:32:33;;;;;;;6.13;3.80;;;22.10;99.90;;;;;;5034338;28;20020;-53
2024/04/04 03:34:59;;;;;;;5.70;3.95;;;22.10;99.90;;;;;;5034410;28;20473;-53
2024/04/04 03:37:25;;;;;;;5.15;3.65;;;22.10;99.90;;;;;;5034451;28;20025;-53
2024/04/04 03:39:53;;;;;;;5.53;3.60;;;22.10;99.90;;;;;;5016604;28;20115;-53
2024/04/04 03:42:19;;;;;;;4.95;3.47;;;22.10;99.90;;;;;;5034355;28;20036;-53
2024/04/04 03:44:45;;;;;;;5.20;4.03;;;22.10;99.90;;;;;;5034385;28;20436;-54
2024/04/04 03:47:11;;;;;;;5.65;3.60;;;22.10;99.90;;;;;;5034098;28;20025;-53
2024/04/04 03:49:36;;;;;;;4.13;3.42;;;22.10;99.90;;;;;;5033824;28;20033;-53
2024/04/04 03:52:02;;;;;;;4.53;3.53;;;22.10;99.90;;;;;;5033961;28;20040;-53
2024/04/04 03:54:28;;;;;;;7.88;3.88;;;22.10;99.90;;;;;;5016387;28;20379;-53
2024/04/04 03:56:54;;;;;;;4.60;3.35;;;22.10;99.90;;;;;;5032855;28;20033;-53
2024/04/04 03:59:20;;;;;;;6.65;3.90;;;22.00;99.90;;;;;;5012523;28;20026;-53
2024/04/04 04:01:45;;;;;;;8.23;3.40;;;22.10;99.90;;;;;;5015678;28;20485;-53
2024/04/04 04:04:11;;;;;;;6.13;4.18;;;22.10;99.90;;;;;;5013782;28;20026;-53
2024/04/04 04:06:37;;;;;;;4.85;3.55;;;22.00;99.90;;;;;;5015212;28;20018;-53
2024/04/04 04:09:03;;;;;;;5.18;3.50;;;22.00;99.90;;;;;;5024931;28;20037;-54
2024/04/04 04:11:29;;;;;;;6.43;4.00;;;22.00;99.90;;;;;;4996541;28;20034;-53
2024/04/04 04:13:55;;;;;;;5.70;3.63;;;22.00;99.90;;;;;;5012738;28;20028;-53
2024/04/04 04:16:21;;;;;;;5.20;3.60;;;22.00;99.90;;;;;;5012897;28;20030;-53
2024/04/04 04:18:49;;;;;;;4.47;3.05;;;22.00;99.90;;;;;;5013871;28;20026;-53
2024/04/04 04:21:19;;;;;;;5.22;3.53;;;22.00;99.90;;;;;;5013336;28;20030;-53
2024/04/04 04:23:49;;;;;;;4.60;3.40;;;22.00;99.90;;;;;;5013493;28;20022;-52
2024/04/04 04:26:15;;;;;;;5.90;3.78;;;22.00;99.90;;;;;;5013550;28;20030;-53
2024/04/04 04:28:41;;;;;;;5.03;3.65;;;22.00;99.90;;;;;;5013481;28;20034;-53
2024/04/04 04:31:27;;;;;;;6.50;3.67;;;22.00;99.90;;;;;;5012810;28;20157;-53
2024/04/04 04:33:54;;;;;;;5.75;3.45;;;22.00;99.90;;;;;;4995987;28;20029;-53
2024/04/04 04:36:22;;;;;;;3.88;3.25;;;22.00;99.90;;;;;;5013675;28;20033;-53
2024/04/04 04:38:47;;;;;;;4.57;3.50;;;22.00;99.90;;;;;;5013598;28;20030;-53
2024/04/04 04:41:13;;;;;;;3.92;2.85;;;22.00;99.90;;;;;;5013199;28;20037;-53
2024/04/04 04:43:42;;;;;;;3.65;2.83;;;21.90;99.90;;;;;;5013205;28;20022;-53
2024/04/04 04:46:08;;;;;;;3.67;3.03;;;21.90;99.90;;;;;;5013334;28;20479;-53
2024/04/04 04:48:34;;;;;;;3.58;2.88;;;21.90;99.90;;;;;;5013000;28;20041;-52
2024/04/04 04:51:00;;;;;;;3.92;2.97;;;22.00;99.90;;;;;;5013184;28;20033;-53
2024/04/04 04:53:26;;;;;;;5.63;3.30;;;21.90;99.90;;;;;;5013073;28;20026;-53
2024/04/04 04:55:52;;;;;;;3.42;2.92;;;21.90;99.90;;;;;;4995493;28;20080;-53
2024/04/04 04:58:22;;;;;;;3.28;2.92;;;21.90;99.90;;;;;;5012967;28;20412;-53
2024/04/04 05:00:50;;;;;;;4.43;3.20;;;21.90;99.90;;;;;;4996845;28;20396;-53
2024/04/04 05:03:17;;;;;;;3.60;3.13;;;21.90;99.90;;;;;;5012755;28;20026;-53
2024/04/04 05:05:42;;;;;;;2.97;2.53;;;21.90;99.90;;;;;;5011103;28;20184;-53
2024/04/04 05:08:08;;;;;;;5.80;3.10;;;21.90;99.90;;;;;;4978218;28;20109;-53
2024/04/04 05:10:34;;;;;;;3.95;2.80;;;21.90;99.90;;;;;;5012687;28;20033;-53
2024/04/04 05:13:00;;;;;;;6.10;3.40;;;21.90;99.90;;;;;;5011891;28;20063;-53
2024/04/04 05:15:26;;;;;;;5.55;2.85;;;21.90;99.90;;;;;;5012760;28;20053;-53
2024/04/04 05:17:51;;;;;;;3.55;2.53;;;21.90;99.90;;;;;;5012853;28;20037;-53
2024/04/04 05:20:17;;;;;;;3.38;2.83;;;21.90;99.90;;;;;;5012695;28;20026;-53
2024/04/04 05:22:43;;;;;;;5.45;3.20;;;21.90;99.90;;;;;;5012617;28;20034;-53
2024/04/04 05:25:15;;;;;;;4.15;3.17;;;21.90;99.90;;;;;;5012575;28;20026;-53
2024/04/04 05:27:42;;;;;;;4.03;3.30;;;21.80;99.90;;;;;;5012360;28;20026;-53
2024/04/04 05:30:13;;;;;;;5.40;3.22;;;21.80;99.90;;;;;;5012539;28;20033;-53
2024/04/04 05:32:42;;;;;;;3.55;2.50;;;21.80;99.90;;;;;;5012460;28;20419;-53
2024/04/04 05:35:08;;;;;;;5.00;3.08;;;21.80;99.90;;;;;;5012507;28;20029;-53
2024/04/04 05:37:37;;;;;;;5.47;3.40;;;21.80;99.90;;;;;;5012402;28;20030;-53
2024/04/04 05:40:04;;;;;;;3.08;2.30;;;21.80;99.90;;;;;;4994976;28;20120;-53
2024/04/04 05:42:32;;;;;;;3.17;2.30;;;21.80;99.90;;;;;;5012468;28;20030;-53
2024/04/04 05:44:58;;;;;;;3.97;2.78;;;21.80;99.90;;;;;;5012364;28;20466;-53
2024/04/04 05:47:24;;;;;;;3.65;2.80;;;21.80;99.90;;;;;;5012435;28;20517;-54
2024/04/04 05:49:50;;;;;;;5.55;2.85;;;21.80;99.90;;;;;;5012285;28;20048;-53
2024/04/04 05:52:16;;;;;;;4.18;2.83;;;21.80;99.90;;;;;;5012165;28;20018;-54
2024/04/04 05:54:43;;;;;;;5.47;3.28;;;21.80;99.90;;;;;;5012101;28;20466;-53
2024/04/04 05:57:09;;;;;;;;;;;21.80;99.90;;;;;;5012694;28;20091;-54
2024/04/04 05:59:35;;;;;;;6.78;3.03;;;21.80;99.90;;;;;;5012245;28;20393;-54
2024/04/04 06:02:00;;;;;;;5.30;2.70;;;21.80;99.90;;;;;;5012033;28;20057;-54
2024/04/04 06:04:26;;;;;;;6.40;3.40;;;21.70;99.90;;;;;;5012068;28;20052;-54
2024/04/04 06:06:52;;;;;;;3.95;2.80;;;21.70;99.90;;;;;;4994640;28;20029;-54
2024/04/04 06:09:18;;;;;;;5.05;3.30;;;21.70;99.90;;;;;;5012011;28;20121;-54
2024/04/04 06:11:44;;;;;;;5.25;3.08;;;21.70;99.90;;;;;;5012013;28;20102;-53
2024/04/04 06:14:10;;;;;;;5.13;3.10;;;21.70;99.90;;;;;;5012195;28;20033;-53
2024/04/04 06:16:36;;;;;;;3.28;2.45;;;21.70;99.90;;;;;;5012046;28;20093;-53
2024/04/04 06:19:03;;;;;;;5.22;2.90;;;21.70;99.90;;;;;;5012079;28;20030;-54
2024/04/04 06:21:28;;;;;;;5.53;3.08;;;21.70;99.90;;;;;;5011996;28;20022;-54
2024/04/04 06:23:54;;;;;;;6.03;2.97;;;21.70;99.90;;;;;;5012136;28;20034;-53
2024/04/04 06:26:21;;;;;;;4.65;2.78;;;21.70;99.90;;;;;;5011961;28;20022;-53
2024/04/04 06:28:47;;;;;;;4.47;2.65;;;21.70;99.90;;;;;;5011946;28;20384;-53
2024/04/04 06:31:13;;;;;;;5.20;3.00;;;21.70;99.90;;;;;;5012149;28;20034;-53
2024/04/04 06:33:39;;;;;;;8.45;3.65;;;21.70;99.90;;;;;;4994294;28;20470;-53
2024/04/04 06:36:05;;;;;;;6.40;2.72;;;21.70;99.90;;;;;;5011837;28;20084;-53
2024/04/04 06:38:31;;;;;;;4.40;2.47;;;21.60;99.90;;;;;;5012021;28;20091;-53
2024/04/04 06:40:56;;;;;;;5.15;3.17;;;21.70;99.90;;;;;;4994680;28;20458;-53
2024/04/04 06:43:22;;;;;;;3.90;2.92;;;21.60;99.90;;;;;;5012193;28;20064;-52
2024/04/04 06:45:48;;;;;;;5.20;3.33;;;21.60;99.90;;;;;;5011982;28;20389;-53
2024/04/04 06:48:14;;;;;;;4.25;3.15;;;21.60;99.90;;;;;;4994273;28;20026;-53
2024/04/04 06:50:39;;;;;;;3.97;2.95;;;21.60;99.90;;;;;;4994109;28;20088;-53
2024/04/04 06:53:05;;;;;;;5.95;3.33;;;21.60;99.90;;;;;;4994315;28;20050;-53
2024/04/04 06:55:31;;;;;;;5.93;3.55;;;21.60;99.90;;;;;;5014795;28;20022;-53
2024/04/04 06:57:57;;;;;;;5.35;3.72;;;21.60;99.90;;;;;;5015424;28;20469;-53
2024/04/04 07:00:23;;;;;;;5.63;3.08;;;21.60;99.90;;;;;;5015259;28;20022;-53
2024/04/04 07:02:48;;;;;;;4.82;3.30;;;21.60;99.90;;;;;;4997332;28;20505;-53
2024/04/04 07:05:14;;;;;;;5.93;3.60;;;21.60;99.90;;;;;;5014877;28;20038;-53
2024/04/04 07:07:40;;;;;;;5.13;3.42;;;21.60;99.90;;;;;;5014912;28;20021;-53
2024/04/04 07:10:07;;;;;;;4.88;3.83;;;21.60;99.90;;;;;;5015093;28;20037;-53
2024/04/04 07:12:33;;;;;;;7.73;3.53;;;21.60;99.90;;;;;;5015156;28;20047;-54
2024/04/04 07:14:59;;;;;;;7.57;3.05;;;21.60;99.90;;;;;;4981161;28;20109;-54
2024/04/04 07:17:31;;;;;;;5.22;3.25;;;21.60;99.90;;;;;;4997392;28;20109;-53
2024/04/04 07:19:57;;;;;;;5.75;3.35;;;21.60;99.90;;;;;;5014941;28;20030;-53
2024/04/04 07:22:24;;;;;;;6.80;3.35;;;21.60;99.90;;;;;;4997287;28;20022;-54
2024/04/04 07:24:50;;;;;;;5.28;3.28;;;21.60;99.90;;;;;;4997161;28;20036;-53
2024/04/04 07:27:16;;;;;;;4.07;3.13;;;21.60;99.90;;;;;;5014684;28;20022;-53
2024/04/04 07:29:42;;;;;;;5.63;3.70;;;21.60;99.90;;;;;;5014535;28;20042;-53
2024/04/04 07:32:08;;;;;;;4.85;3.28;;;21.60;99.90;;;;;;5014598;28;20384;-53
2024/04/04 07:34:35;;;;;;;5.20;3.40;;;21.50;99.90;;;;;;5014686;28;20034;-53
2024/04/04 07:37:00;;;;;;;5.97;4.13;;;21.60;99.90;;;;;;5015320;28;20028;-53
2024/04/04 07:39:27;;;;;;;5.57;3.30;;;21.50;99.90;;;;;;5028531;28;20022;-53
2024/04/04 07:41:53;;;;;;;5.35;3.50;;;21.60;99.90;;;;;;5032428;28;20037;-53
2024/04/04 07:44:19;;;;;;;6.82;3.72;;;21.50;99.90;;;;;;5033053;28;20068;-54
2024/04/04 07:46:45;;;;;;;6.22;4.15;;;21.60;99.90;;;;;;5033993;28;20393;-53
2024/04/04 07:49:10;;;;;;;6.95;3.92;;;21.60;99.90;;;;;;5034063;28;20033;-53
2024/04/04 07:51:36;;;;;;;5.25;3.65;;;21.60;99.90;;;;;;5033968;28;20025;-53
2024/04/04 07:54:03;;;;;;;5.38;3.28;;;21.60;99.90;;;;;;5016237;28;20572;-53
2024/04/04 07:56:29;;;;;;;9.70;3.90;;;21.60;99.90;;;;;;5034129;28;20385;-53
2024/04/04 07:58:55;;;;;;;8.10;4.00;;;21.60;99.90;;;;;;5033808;28;20029;-53
2024/04/04 08:01:21;;;;;;;6.70;3.35;;;21.50;99.90;;;;;;5033705;28;20046;-53
2024/04/04 08:03:49;;;;;;;4.60;3.22;;;21.60;99.90;;;;;;5015984;28;20033;-53
2024/04/04 08:06:15;;;;;;;6.57;4.38;;;21.50;99.90;;;;;;5032530;28;20447;-53
2024/04/04 08:08:42;;;;;;;6.30;4.07;;;21.50;99.90;;;;;;5033605;28;20482;-53
2024/04/04 08:11:11;;;;;;;6.25;4.10;;;21.50;99.90;;;;;;5033594;28;20469;-53
2024/04/04 08:13:41;;;;;;;6.15;4.35;;;21.50;99.90;;;;;;5033400;28;20416;-54
2024/04/04 08:16:08;;;;;;;5.88;3.53;;;21.50;99.90;;;;;;5033378;28;20025;-53
2024/04/04 08:18:34;;;;;;;7.05;4.30;;;21.60;99.90;;;;;;5033437;28;20021;-54
2024/04/04 08:21:00;;;;;;;7.53;3.85;;;21.50;99.90;;;;;;5033751;28;20026;-53
2024/04/04 08:23:26;;;;;;;7.03;4.07;;;21.50;99.90;;;;;;5033331;28;20444;-53
2024/04/04 08:25:54;;;;;;;5.88;3.65;;;21.60;99.90;;;;;;5033396;28;20049;-53
2024/04/04 08:28:19;;;;;;;5.30;3.67;;;21.50;99.90;;;;;;5033081;28;20032;-53
2024/04/04 08:30:55;;;;;;;5.63;3.75;;;21.50;99.90;;;;;;5033277;28;20026;-52
2024/04/04 08:33:21;;;;;;;7.07;4.07;;;21.60;99.90;;;;;;5033226;28;20036;-53
2024/04/04 08:35:47;;;;;;;5.18;3.47;;;21.50;99.90;;;;;;5015398;28;20033;-52
2024/04/04 08:38:13;;;;;;;7.57;3.78;;;21.60;99.90;;;;;;5033035;28;20021;-52
2024/04/04 08:40:39;;;;;;;7.32;4.03;;;21.50;99.90;;;;;;5032955;28;20033;-53
2024/04/04 08:43:06;;;;;;;6.95;3.72;;;21.60;99.90;;;;;;5032953;28;20033;-52
2024/04/04 08:45:42;;;;;;;5.80;3.70;;;21.60;99.90;;;;;;5033206;28;20543;-52
2024/04/04 08:48:08;;;;;;;5.80;4.07;;;21.50;99.90;;;;;;5032901;28;20022;-52
2024/04/04 08:50:34;;;;;;;4.88;3.45;;;21.60;99.90;;;;;;5032837;28;20113;-52
2024/04/04 08:53:00;;;;;;;6.53;3.85;;;21.60;99.90;;;;;;5033018;28;20021;-53
2024/04/04 08:55:26;;;;;;;6.47;3.55;;;21.50;99.90;;;;;;5032658;28;20025;-53
2024/04/04 08:57:52;;;;;;;4.88;3.53;;;21.50;99.90;;;;;;5032632;28;20573;-53
2024/04/04 09:00:21;;;;;;;4.97;3.50;;;21.60;99.90;;;;;;5032620;28;20029;-52
2024/04/04 09:02:47;;;;;;;5.82;4.50;;;21.60;99.90;;;;;;5032495;28;20041;-53
2024/04/04 09:05:13;;;;;;;4.90;3.85;;;21.50;99.90;;;;;;5032439;28;20025;-52
2024/04/04 09:07:41;;;;;;;5.82;4.18;;;21.50;99.90;;;;;;5032494;28;20125;-53
2024/04/04 09:10:14;;;;;;;5.97;4.57;;;21.50;99.90;;;;;;5032416;28;20037;-53
2024/04/04 09:12:40;;;;;;;7.20;4.10;;;21.50;99.90;;;;;;5032560;28;20377;-53
2024/04/04 09:15:06;;;;;;;6.32;3.85;;;21.60;99.90;;;;;;5032495;28;20025;-53
2024/04/04 09:17:32;;;;;;;5.30;3.95;;;21.60;99.90;;;;;;5032168;28;20103;-53
2024/04/04 09:19:59;;;;;;;5.82;4.07;;;21.60;99.90;;;;;;5032327;28;20030;-53
2024/04/04 09:22:27;;;;;;;5.40;3.97;;;21.60;99.90;;;;;;5032117;28;20401;-53
2024/04/04 09:24:57;;;;;;;7.80;4.55;;;21.60;99.90;;;;;;5032224;28;20101;-53
2024/04/04 09:27:23;;;;;;;6.63;4.53;;;21.60;99.90;;;;;;5032237;28;20021;-52
2024/04/04 09:29:51;;;;;;;8.07;5.30;;;21.60;99.90;;;;;;5031840;28;20037;-52
2024/04/04 09:32:19;;;;;;;6.55;4.50;;;21.60;99.90;;;;;;5032121;28;20032;-52
2024/04/04 09:34:46;;;;;;;5.00;3.97;;;21.70;99.90;;;;;;5032222;28;20029;-53
2024/04/04 09:37:16;;;;;;;5.72;3.78;;;21.70;99.90;;;;;;5014170;28;20025;-53
2024/04/04 09:39:42;;;;;;;7.05;4.72;;;21.60;99.90;;;;;;5031992;28;20044;-53
2024/04/04 09:42:09;;;;;;;6.13;4.28;;;21.70;99.90;;;;;;5032158;28;20025;-53
2024/04/04 09:44:36;;;;;;;6.25;4.97;;;21.70;99.90;;;;;;5032224;28;20021;-52
2024/04/04 09:47:06;;;;;;;6.93;4.47;;;21.70;99.90;;;;;;5014409;28;20040;-52
2024/04/04 09:49:32;;;;;;;8.05;4.63;;;21.70;99.90;;;;;;5032058;28;20037;-52
2024/04/04 09:52:02;;;;;;;8.18;5.22;;;21.70;99.90;;;;;;5031943;28;20045;-52
2024/04/04 09:54:30;;;;;;;7.32;5.00;;;21.70;99.90;;;;;;5031810;28;20533;-52
2024/04/04 09:56:57;;;;;;;7.78;5.03;;;21.70;99.90;;;;;;5014178;28;20033;-52
2024/04/04 09:59:30;;;;;;;9.38;4.72;;;21.70;99.90;;;;;;5031901;28;20039;-52
2024/04/04 10:02:03;;;;;;;7.32;5.00;;;21.70;99.90;;;;;;5014113;28;20044;-52
2024/04/04 10:04:35;;;;;;;9.38;4.93;;;21.70;99.90;;;;;;5031781;28;20034;-53
2024/04/04 10:07:02;;;;;;;7.15;4.50;;;21.80;99.90;;;;;;5031811;28;20017;-52
2024/04/04 10:09:39;;;;;;;9.05;5.30;;;21.80;99.90;;;;;;5031732;28;20628;-53
2024/04/04 10:12:10;;;;;;;7.78;4.90;;;21.80;99.90;;;;;;5032004;28;20022;-53
2024/04/04 10:14:36;;;;;;;7.95;5.38;;;21.80;99.90;;;;;;5031841;28;20433;-53
2024/04/04 10:17:06;;;;;;;6.50;4.47;;;21.90;99.90;;;;;;5013954;28;20080;-53
2024/04/04 10:19:34;;;;;;;7.32;4.53;;;21.90;99.90;;;;;;5031746;28;20415;-53
2024/04/04 10:22:02;;;;;;;12.40;4.80;;;21.90;99.90;;;;;;5031461;28;20030;-53
2024/04/04 10:24:29;;;;;;;8.95;5.57;;;21.90;99.90;;;;;;5031559;28;20420;-53
2024/04/04 10:26:59;;;;;;;9.55;5.10;;;21.90;99.90;;;;;;5031582;28;20029;-53
2024/04/04 10:29:30;;;;;;;8.70;4.97;;;21.90;99.90;;;;;;5032912;28;20036;-53
2024/04/04 10:31:56;;;;;;;11.25;5.55;;;22.00;99.90;;;;;;5035571;28;20021;-53
2024/04/04 10:34:22;;;;;;;5.80;4.68;;;22.00;99.90;;;;;;5035433;28;20025;-53
2024/04/04 10:36:48;;;;;;;10.40;5.57;;;22.00;99.90;;;;;;5035480;28;20040;-54
2024/04/04 10:39:21;;;;;;;9.15;5.05;;;22.00;99.90;;;;;;5035438;28;20052;-54
2024/04/04 10:41:51;;;;;;;6.55;4.75;;;22.00;99.90;;;;;;5035243;28;20021;-54
2024/04/04 10:44:21;;;;;;;10.82;5.18;;;22.00;99.90;;;;;;5035325;28;20454;-54
2024/04/04 10:46:51;;;;;;;8.20;5.20;;;22.00;99.90;;;;;;5035353;28;20057;-54
2024/04/04 10:49:19;;;;;;;8.13;5.25;;;22.10;99.90;;;;;;5028113;28;20511;-54
2024/04/04 10:51:59;;;;;;;6.05;4.40;;;22.10;99.90;;;;;;5015516;28;20120;-54
2024/04/04 10:54:26;;;;;;;7.93;4.72;;;22.10;99.90;;;;;;5019021;28;20347;-54
2024/04/04 10:56:52;;;;;;;7.15;5.22;;;22.10;99.90;;;;;;5017391;28;20439;-54
2024/04/04 10:59:19;;;;;;;7.68;4.55;;;22.10;99.90;;;;;;5015594;28;20036;-54
2024/04/04 11:01:49;;;;;;;5.63;4.93;;;22.10;99.90;;;;;;5019359;28;20037;-54
2024/04/04 11:04:16;;;;;;;7.75;5.03;;;22.10;99.90;;;;;;5034816;28;20033;-52
2024/04/04 11:06:43;;;;;;;7.75;4.75;;;22.10;99.90;;;;;;5019154;28;20101;-52
2024/04/04 11:09:16;;;;;;;6.67;4.93;;;22.20;99.90;;;;;;5022264;28;20038;-54
2024/04/04 11:11:55;;;;;;;7.68;5.00;;;22.20;99.90;;;;;;5016495;28;20119;-54
2024/04/04 11:14:22;;;;;;;7.18;4.75;;;22.20;99.90;;;;;;5032958;28;20076;-54
2024/04/04 11:16:51;;;;;;;8.60;5.55;;;22.20;99.90;;;;;;5033980;28;20056;-54
2024/04/04 11:19:20;;;;;;;7.25;4.63;;;22.20;99.90;;;;;;5034607;28;20034;-54
2024/04/04 11:21:47;;;;;;;7.97;5.28;;;22.20;99.90;;;;;;5034579;28;20017;-54
2024/04/04 11:24:13;;;;;;;6.30;5.20;;;22.20;99.90;;;;;;5034613;28;20080;-54
2024/04/04 11:26:40;;;;;;;8.80;5.82;;;22.20;99.90;;;;;;5034790;28;20389;-53
2024/04/04 11:29:06;;;;;;;9.68;5.57;;;22.30;99.90;;;;;;5034425;28;20067;-53
2024/04/04 11:31:32;;;;;;;7.93;5.47;;;22.20;99.90;;;;;;5016896;28;20467;-54
2024/04/04 11:33:58;;;;;;;8.32;5.82;;;22.30;99.90;;;;;;5034262;28;20026;-54
2024/04/04 11:36:24;;;;;;;7.53;5.68;;;22.30;99.90;;;;;;5034518;28;20021;-54
2024/04/04 11:38:50;;;;;;;8.85;5.68;;;22.30;99.90;;;;;;5034266;28;20028;-54
2024/04/04 11:41:16;;;;;;;8.20;5.30;;;22.30;99.90;;;;;;5016485;28;20022;-54
2024/04/04 11:43:42;;;;;;;7.10;5.32;;;22.30;99.90;;;;;;5034362;28;20068;-54
2024/04/04 11:46:12;;;;;;;7.43;5.22;;;22.30;99.90;;;;;;5034340;28;20032;-54
2024/04/04 11:48:39;;;;;;;6.50;5.35;;;22.30;99.90;;;;;;5034078;28;20028;-54
2024/04/04 11:51:04;;;;;;;11.10;5.17;;;22.30;99.90;;;;;;5034192;28;20112;-54
2024/04/04 11:53:30;;;;;;;7.45;5.25;;;22.30;99.90;;;;;;5034135;28;20109;-54
2024/04/04 11:55:56;;;;;;;8.02;5.20;;;22.30;99.90;;;;;;5016302;28;20056;-54
2024/04/04 11:58:31;;;;;;;9.80;5.70;;;22.40;99.90;;;;;;5033779;28;20428;-54
2024/04/04 12:00:59;;;;;;;10.05;5.05;;;22.30;99.90;;;;;;5033540;28;20034;-53
2024/04/04 12:03:27;;;;;;;8.77;5.28;;;22.30;99.90;;;;;;5016174;28;20037;-53
2024/04/04 12:05:52;;;;;;;;;;;22.40;99.90;;;;;;5034179;28;20112;-53
2024/04/04 12:08:18;;;;;;;9.15;5.55;;;22.40;99.90;;;;;;5033731;28;20331;-53
2024/04/04 12:10:44;;;;;;;7.32;4.93;;;22.40;99.90;;;;;;5015872;28;20713;-54
2024/04/04 12:13:11;;;;;;;8.02;5.15;;;22.40;99.90;;;;;;5033868;28;20033;-53
2024/04/04 12:15:37;;;;;;;7.80;5.68;;;22.40;99.90;;;;;;5015800;28;20029;-54
2024/04/04 12:20:47;;;;;;;6.43;4.57;;;22.40;99.90;;;;;;5018681;28;20075;-54
2024/04/04 12:23:13;;;;;;;6.30;5.38;;;22.40;99.90;;;;;;5033646;28;20390;-53
2024/04/04 12:25:39;;;;;;;7.15;5.43;;;22.40;99.90;;;;;;5033272;28;20053;-54
2024/04/04 16:46:54;;;;;;;5.93;3.72;;;23.60;99.90;;;;;;4646557;28;20053;-46
2024/04/04 16:49:20;;;;;;;7.47;4.10;;;23.60;99.90;;;;;;5029701;28;20508;-46
2024/04/04 16:51:47;;;;;;;7.72;3.95;;;23.60;99.90;;;;;;5008383;28;20587;-45
2024/04/04 16:54:13;;;;;;;6.72;3.88;;;23.50;99.90;;;;;;5009064;28;20105;-45
2024/04/04 16:56:42;;;;;;;7.93;3.55;;;23.50;99.90;;;;;;5009155;28;20404;-46
2024/04/04 16:59:11;;;;;;;4.95;3.00;;;23.50;99.90;;;;;;5008982;28;20170;-44
2024/04/04 17:01:38;;;;;;;7.90;3.50;;;23.50;99.90;;;;;;5007512;28;20505;-44
2024/04/04 17:04:04;;;;;;;10.00;3.13;;;23.50;99.90;;;;;;5008100;28;20051;-45
2024/04/04 17:06:30;;;;;;;6.15;3.50;;;23.60;99.90;;;;;;5007367;28;20555;-44